Time;durP1;ratioP1;P1;durP2;ratioP2;P2;SDS_P1;SDS_P2;PMS_P1;PMS_P2;Temp;Humidity;BMP_temperature;BMP_pressure;BME280_temperature;BME280_humidity;BME280_pressure;Samples;Min_cycle;Max_cycle;Signal;HPM_P1;HPM_P2
2023/03/28 00:01:29;;;;;;;;;;;;;;;3.08;100.00;100971.72;5038628;28;19924;-40
2023/03/28 00:03:56;;;;;;;;;;;;;;;3.00;100.00;100965.53;5037025;28;19921;-40
2023/03/28 00:06:23;;;;;;;;;;;;;;;3.44;100.00;100981.22;5037651;28;19917;-40
2023/03/28 00:08:49;;;;;;;;;;;;;;;3.07;100.00;100949.59;5038620;28;20166;-40
2023/03/28 00:11:18;;;;;;;;;;;;;;;3.30;100.00;100959.59;5037945;28;19948;-40
2023/03/28 00:13:44;;;;;;;;;;;;;;;2.87;100.00;100922.69;5037262;28;19932;-40
2023/03/28 00:16:11;;;;;;;;;;;;;;;2.87;100.00;100922.69;5035763;28;19975;-40
2023/03/28 00:18:37;;;;;;;;;;;;;;;2.67;100.00;100907.72;5037848;28;19920;-40
2023/03/28 00:21:04;;;;;;;;;;;;;;;2.61;100.00;100916.81;5037303;28;20038;-40
2023/03/28 00:23:30;;;;;;;;;;;;;;;2.86;100.00;100948.97;5036619;28;19925;-40
2023/03/28 00:25:55;;;;;;;;;;;;;;;2.91;100.00;100953.38;5036162;28;19917;-40
2023/03/28 00:28:21;;;;;;;;;;;;;;;2.99;100.00;100963.81;5037442;28;20576;-40
2023/03/28 00:30:46;;;;;;;;;;;;;;;2.91;100.00;100953.38;5036762;28;20007;-42
2023/03/28 00:33:11;;;;;;;;;;;;;;;3.05;100.00;100960.56;5037060;28;20043;-41
2023/03/28 00:35:36;;;;;;;;;;;;;;;3.01;100.00;100959.63;5036388;28;20124;-41
2023/03/28 00:38:02;;;;;;;;;;;;;;;2.90;100.00;100951.66;5037014;28;19917;-40
2023/03/28 00:40:29;;;;;;;;;;;;;;;2.84;100.00;100956.56;5037446;28;19970;-40
2023/03/28 00:42:54;;;;;;;;;;;;;;;3.07;100.00;100979.31;5034126;28;20027;-40
2023/03/28 00:45:23;;;;;;;;;;;;;;;2.96;100.00;100965.38;5034303;28;20495;-40
2023/03/28 00:47:50;;;;;;;;;;;;;;;2.79;100.00;100958.09;5036363;28;19920;-40
2023/03/28 00:50:18;;;;;;;;;;;;;;;2.51;100.00;100952.16;5037080;28;19947;-40
2023/03/28 00:52:55;;;;;;;;;;;;;;;2.80;100.00;100987.81;5036630;28;19928;-40
2023/03/28 00:55:23;;;;;;;;;;;;;;;3.27;100.00;101008.75;5035327;28;19925;-40
2023/03/28 00:57:49;;;;;;;;;;;;;;;2.82;100.00;100978.53;5038074;28;19917;-40
2023/03/28 01:00:15;;;;;;;;;;;;;;;2.89;100.00;100988.09;5035526;28;20152;-40
2023/03/28 01:02:41;;;;;;;;;;;;;;;2.82;100.00;100988.72;5037784;28;19917;-40
2023/03/28 01:05:06;;;;;;;;;;;;;;;2.76;100.00;100988.53;5034568;28;19921;-40
2023/03/28 01:07:34;;;;;;;;;;;;;;;2.67;100.00;100991.66;5035062;28;19928;-40
2023/03/28 01:10:00;;;;;;;;;;;;;;;3.10;100.00;101020.09;5035386;28;19975;-40
2023/03/28 01:12:25;;;;;;;;;;;;;;;2.75;100.00;100999.53;5036799;28;20158;-40
2023/03/28 01:14:50;;;;;;;;;;;;;;;2.98;100.00;101001.94;5017855;28;19929;-40
2023/03/28 01:17:16;;;;;;;;;;;;;;;2.98;100.00;100997.69;5035273;28;20370;-40
2023/03/28 01:19:59;;;;;;;;;;;;;;;2.77;100.00;100984.31;5037607;28;19928;-40
2023/03/28 01:22:42;;;;;;;;;;;;;;;2.63;100.00;100989.81;5037249;28;19919;-40
2023/03/28 01:25:17;;;;;;;;;;;;;;;2.55;100.00;100982.75;5034700;28;20370;-40
2023/03/28 01:28:00;;;;;;;;;;;;;;;2.74;100.00;100992.72;5037795;28;19987;-40
2023/03/28 01:31:01;;;;;;;;;;;;;;;2.86;100.00;100994.78;5034495;28;19927;-40
2023/03/28 01:33:45;;;;;;;;;;;;;;;2.79;100.00;100983.53;4994360;28;19957;-40
2023/03/28 01:36:29;;;;;;;;;;;;;;;2.56;100.00;100974.31;5032025;28;19932;-40
2023/03/28 01:39:13;;;;;;;;;;;;;;;2.34;100.00;100960.91;5037343;28;20394;-40
2023/03/28 01:41:40;;;;;;;;;;;;;;;2.78;100.00;100991.97;5037085;28;19928;-40
2023/03/28 01:44:09;;;;;;;;;;;;;;;3.05;100.00;101001.28;5033567;28;19963;-40
2023/03/28 01:46:34;;;;;;;;;;;;;;;2.75;100.00;100979.16;5037252;28;19963;-40
2023/03/28 01:49:08;;;;;;;;;;;;;;;2.64;100.00;100968.63;5036743;28;19956;-40
2023/03/28 01:51:52;;;;;;;;;;;;;;;3.01;100.00;100989.28;5036465;28;19917;-40
2023/03/28 01:54:32;;;;;;;;;;;;;;;2.61;100.00;100957.53;5036239;28;19936;-40
2023/03/28 01:57:14;;;;;;;;;;;;;;;2.67;100.00;100975.53;5036755;28;20338;-40
2023/03/28 01:59:58;;;;;;;;;;;;;;;2.60;100.00;100971.03;5035693;28;19959;-40
2023/03/28 02:02:23;;;;;;;;;;;;;;;2.83;100.00;100980.28;5036533;28;19928;-41
2023/03/28 02:04:48;;;;;;;;;;;;;;;2.70;100.00;100973.06;5035548;28;19916;-40
2023/03/28 02:07:14;;;;;;;;;;;;;;;2.72;100.00;100976.53;5034580;28;19920;-40
2023/03/28 02:09:39;;;;;;;;;;;;;;;2.59;100.00;100970.19;5034153;28;19970;-40
2023/03/28 02:12:07;;;;;;;;;;;;;;;2.60;100.00;100976.13;5036305;28;19996;-40
2023/03/28 02:14:36;;;;;;;;;;;;;;;2.54;100.00;100983.59;5033221;28;20008;-40
2023/03/28 02:17:03;;;;;;;;;;;;;;;2.84;100.00;101012.53;5034724;28;20412;-40
2023/03/28 02:19:28;;;;;;;;;;;;;;;2.79;100.00;101008.13;5034528;28;19924;-40
2023/03/28 02:22:14;;;;;;;;;;;;;;;2.70;100.00;100998.53;5034685;28;19921;-40
2023/03/28 02:24:39;;;;;;;;;;;;;;;2.90;100.00;101015.28;5035019;28;19952;-40
2023/03/28 02:27:07;;;;;;;;;;;;;;;2.56;100.00;100993.00;5018013;28;20374;-40
2023/03/28 02:29:32;;;;;;;;;;;;;;;2.29;100.00;100982.75;5035955;28;19927;-40
2023/03/28 02:31:57;;;;;;;;;;;;;;;2.62;100.00;101011.00;5018507;28;20340;-40
2023/03/28 02:34:23;;;;;;;;;;;;;;;2.89;100.00;101027.94;5034630;28;19930;-40
2023/03/28 02:36:52;;;;;;;;;;;;;;;2.55;100.00;100992.94;5035751;28;19921;-40
2023/03/28 02:39:37;;;;;;;;;;;;;;;2.74;100.00;101002.91;5028674;28;19921;-40
2023/03/28 02:42:02;;;;;;;;;;;;;;;2.96;100.00;100989.16;5034397;28;19994;-40
2023/03/28 02:44:31;;;;;;;;;;;;;;;2.91;100.00;100978.81;5032666;28;19940;-40
2023/03/28 02:47:12;;;;;;;;;;;;;;;2.98;100.00;100973.94;5034621;28;19913;-40
2023/03/28 02:49:39;;;;;;;;;;;;;;;2.87;100.00;100951.56;5035968;28;19921;-40
2023/03/28 02:52:08;;;;;;;;;;;;;;;3.17;100.00;100958.41;5034211;28;19917;-40
2023/03/28 02:54:38;;;;;;;;;;;;;;;2.99;100.00;100920.53;5034965;28;19932;-40
2023/03/28 02:57:06;;;;;;;;;;;;;;;2.97;100.00;100901.81;5036315;28;19925;-40
2023/03/28 02:59:35;;;;;;;;;;;;;;;3.28;100.00;100890.81;5033476;28;19932;-40
2023/03/28 03:02:01;;;;;;;;;;;;;;;3.46;100.00;100887.91;5035838;28;20853;-40
2023/03/28 03:04:26;;;;;;;;;;;;;;;3.56;100.00;100869.50;5034166;28;19982;-40
2023/03/28 03:06:51;;;;;;;;;;;;;;;3.05;100.00;100823.13;5035969;28;20372;-40
2023/03/28 03:09:16;;;;;;;;;;;;;;;3.27;100.00;100844.94;5034852;28;20409;-40
2023/03/28 03:11:41;;;;;;;;;;;;;;;3.39;100.00;100814.72;5034536;28;19916;-40
2023/03/28 03:14:07;;;;;;;;;;;;;;;2.78;100.00;100777.41;5034431;28;19921;-40
2023/03/28 03:16:33;;;;;;;;;;;;;;;2.74;100.00;100786.66;5035265;28;19998;-40
2023/03/28 03:18:58;;;;;;;;;;;;;;;3.29;100.00;100820.41;5035027;28;19921;-40
2023/03/28 03:21:24;;;;;;;;;;;;;;;3.01;100.00;100796.75;5035242;28;19917;-40
2023/03/28 03:23:50;;;;;;;;;;;;;;;2.84;100.00;100798.78;5035492;28;19916;-40
2023/03/28 03:26:15;;;;;;;;;;;;;;;2.66;100.00;100804.22;5033381;28;20196;-40
2023/03/28 03:28:41;;;;;;;;;;;;;;;3.00;100.00;100834.88;5035709;28;20280;-40
2023/03/28 03:31:06;;;;;;;;;;;;;;;2.66;100.00;100828.78;5037495;28;19920;-40
2023/03/28 03:33:32;;;;;;;;;;;;;;;2.77;100.00;100827.44;5039387;28;19913;-40
2023/03/28 03:35:57;;;;;;;;;;;;;;;2.56;100.00;100826.81;5037660;28;20444;-40
2023/03/28 03:38:22;;;;;;;;;;;;;;;2.54;100.00;100848.78;5039270;28;19921;-40
2023/03/28 03:40:47;;;;;;;;;;;;;;;2.39;100.00;100857.66;5038858;28;19921;-40
2023/03/28 03:43:13;;;;;;;;;;;;;;;2.29;100.00;100855.66;5039633;28;19916;-40
2023/03/28 03:45:39;;;;;;;;;;;;;;;2.41;100.00;100888.22;5036105;28;20309;-40
2023/03/28 03:48:04;;;;;;;;;;;;;;;2.41;100.00;100899.25;5039537;28;20277;-40
2023/03/28 03:50:30;;;;;;;;;;;;;;;2.53;100.00;100920.78;5039103;28;20127;-40
2023/03/28 03:52:56;;;;;;;;;;;;;;;2.31;100.00;100920.13;5038184;28;20778;-40
2023/03/28 03:55:21;;;;;;;;;;;;;;;2.61;100.00;100952.44;5037371;28;19920;-41
2023/03/28 03:57:46;;;;;;;;;;;;;;;2.50;100.00;100949.53;5038826;28;20101;-40
2023/03/28 04:00:12;;;;;;;;;;;;;;;2.72;100.00;100956.19;5037346;28;19979;-41
2023/03/28 04:02:37;;;;;;;;;;;;;;;2.47;100.00;100940.13;5039761;28;20226;-40
2023/03/28 04:05:03;;;;;;;;;;;;;;;2.58;100.00;100945.59;5037353;28;20015;-41
2023/03/28 04:07:28;;;;;;;;;;;;;;;2.51;100.00;100931.81;5039407;28;20317;-40
2023/03/28 04:09:53;;;;;;;;;;;;;;;2.67;100.00;100942.47;5038864;28;19921;-40
2023/03/28 04:12:19;;;;;;;;;;;;;;;2.64;100.00;100932.19;5037813;28;20035;-40
2023/03/28 04:14:44;;;;;;;;;;;;;;;2.79;100.00;100942.84;5036046;28;19925;-40
2023/03/28 04:17:12;;;;;;;;;;;;;;;3.07;100.00;100957.25;5038967;28;20508;-40
2023/03/28 04:19:38;;;;;;;;;;;;;;;3.88;100.00;100973.13;5038169;28;20011;-40
2023/03/28 04:22:06;;;;;;;;;;;;;;;4.06;100.00;100922.63;5038561;28;19917;-40
2023/03/28 04:24:32;;;;;;;;;;;;;;;4.23;100.00;100843.97;5037161;28;20021;-40
2023/03/28 04:26:57;;;;;;;;;;;;;;;4.17;100.00;100775.88;5035890;28;19958;-40
2023/03/28 04:29:29;;;;;;;;;;;;;;;4.38;100.00;100723.59;5035402;28;19916;-40
2023/03/28 04:31:55;;;;;;;;;;;;;;;4.24;100.00;100666.31;5038119;28;19917;-40
2023/03/28 04:34:24;;;;;;;;;;;;;;;3.55;100.00;100614.75;5037770;28;19924;-40
2023/03/28 04:36:49;;;;;;;;;;;;;;;4.00;100.00;100624.22;5038081;28;19924;-40
2023/03/28 04:39:15;;;;;;;;;;;;;;;4.25;100.00;100610.25;5037365;28;19973;-40
2023/03/28 04:41:40;;;;;;;;;;;;;;;3.96;100.00;100558.69;5037682;28;19920;-40
2023/03/28 04:44:05;;;;;;;;;;;;;;;4.36;100.00;100569.66;5036540;28;20013;-40
2023/03/28 04:46:30;;;;;;;;;;;;;;;4.60;100.00;100549.66;5036800;28;19920;-40
2023/03/28 04:48:56;;;;;;;;;;;;;;;3.68;100.00;100491.91;5038610;28;19913;-40
2023/03/28 04:51:21;;;;;;;;;;;;;;;3.10;100.00;100478.81;5036871;28;19924;-40
2023/03/28 04:53:46;;;;;;;;;;;;;;;3.19;100.00;100520.56;5037307;28;20466;-40
2023/03/28 04:56:14;;;;;;;;;;;;;;;3.34;100.00;100542.13;5035704;28;20023;-40
2023/03/28 04:58:40;;;;;;;;;;;;;;;3.00;100.00;100554.91;5036943;28;19974;-40
2023/03/28 05:01:09;;;;;;;;;;;;;;;3.22;100.00;100618.25;5037922;28;19925;-40
2023/03/28 05:03:34;;;;;;;;;;;;;;;4.10;100.00;100660.94;5037190;28;19921;-44
2023/03/28 05:06:00;;;;;;;;;;;;;;;4.20;100.00;100609.31;5036304;28;19927;-41
2023/03/28 05:08:26;;;;;;;;;;;;;;;3.75;100.00;100565.06;5037913;28;20351;-40
2023/03/28 05:10:51;;;;;;;;;;;;;;;3.59;100.00;100580.88;5036679;28;19975;-40
2023/03/28 05:13:17;;;;;;;;;;;;;;;3.53;100.00;100573.94;5037150;28;20127;-40
2023/03/28 05:15:42;;;;;;;;;;;;;;;3.71;100.00;100604.06;5035730;28;20302;-40
2023/03/28 05:18:08;;;;;;;;;;;;;;;3.80;100.00;100612.72;5037069;28;19917;-40
2023/03/28 05:20:33;;;;;;;;;;;;;;;4.29;100.00;100614.59;5036902;28;20090;-40
2023/03/28 05:22:58;;;;;;;;;;;;;;;4.14;100.00;100599.84;5036584;28;19921;-40
2023/03/28 05:25:24;;;;;;;;;;;;;;;3.70;100.00;100592.16;5036529;28;19921;-40
2023/03/28 05:27:50;;;;;;;;;;;;;;;3.18;100.00;100601.16;5036673;28;19927;-40
2023/03/28 05:30:15;;;;;;;;;;;;;;;4.37;100.00;100658.94;5035555;28;19944;-40
2023/03/28 05:32:40;;;;;;;;;;;;;;;3.84;100.00;100609.44;5037192;28;19956;-40
2023/03/28 05:35:07;;;;;;;;;;;;;;;3.64;100.00;100606.44;5036401;28;19995;-40
2023/03/28 05:37:32;;;;;;;;;;;;;;;3.87;100.00;100634.97;5036355;28;19928;-40
2023/03/28 05:39:58;;;;;;;;;;;;;;;3.46;100.00;100627.25;5036704;28;19921;-40
2023/03/28 05:42:23;;;;;;;;;;;;;;;3.52;100.00;100647.78;5036674;28;20393;-40
2023/03/28 05:44:48;;;;;;;;;;;;;;;3.57;100.00;100676.78;5034280;28;19986;-40
2023/03/28 05:47:13;;;;;;;;;;;;;;;3.13;100.00;100674.88;5036153;28;19916;-40
2023/03/28 05:49:39;;;;;;;;;;;;;;;3.34;100.00;100724.59;5035382;28;19969;-40
2023/03/28 05:52:05;;;;;;;;;;;;;;;3.21;100.00;100748.88;5036036;28;19920;-40
2023/03/28 05:54:30;;;;;;;;;;;;;;;3.70;100.00;100785.78;5036725;28;20591;-40
2023/03/28 05:56:55;;;;;;;;;;;;;;;3.64;100.00;100775.44;5036909;28;19931;-40
2023/03/28 05:59:23;;;;;;;;;;;;;;;3.45;100.00;100768.19;5037028;28;19970;-40
2023/03/28 06:01:51;;;;;;;;;;;;;;;3.62;100.00;100788.97;5036813;28;20420;-40
2023/03/28 06:04:16;;;;;;;;;;;;;;;3.92;100.00;100783.75;5036395;28;19951;-40
2023/03/28 06:06:41;;;;;;;;;;;;;;;3.81;100.00;100772.44;5037515;28;19952;-40
2023/03/28 06:09:07;;;;;;;;;;;;;;;4.29;100.00;100794.78;5037596;28;19974;-40
2023/03/28 06:11:32;;;;;;;;;;;;;;;4.46;100.00;100788.38;5037184;28;19927;-40
2023/03/28 06:13:57;;;;;;;;;;;;;;;3.70;100.00;100718.69;5037753;28;20400;-40
2023/03/28 06:16:23;;;;;;;;;;;;;;;4.27;100.00;100758.22;5035838;28;20386;-40
2023/03/28 06:18:48;;;;;;;;;;;;;;;4.43;100.00;100762.81;5037887;28;20637;-40
2023/03/28 06:21:13;;;;;;;;;;;;;;;4.01;100.00;100732.13;5036855;28;19920;-40
2023/03/28 06:23:39;;;;;;;;;;;;;;;4.24;100.00;100764.09;5037101;28;20863;-40
2023/03/28 06:26:05;;;;;;;;;;;;;;;4.09;100.00;100741.66;5036066;28;20405;-40
2023/03/28 06:28:30;;;;;;;;;;;;;;;4.42;100.00;100747.47;5037375;28;19923;-40
2023/03/28 06:30:56;;;;;;;;;;;;;;;5.00;100.00;100749.50;5035945;28;19923;-40
2023/03/28 06:33:21;;;;;;;;;;;;;;;4.96;100.00;100711.97;5035911;28;19947;-40
2023/03/28 06:35:46;;;;;;;;;;;;;;;3.99;100.00;100691.28;5034434;28;19925;-40
2023/03/28 06:38:11;;;;;;;;;;;;;;;3.64;100.00;100696.47;5037281;28;19967;-40
2023/03/28 06:40:37;;;;;;;;;;;;;;;3.87;100.00;100722.47;5037138;28;19923;-40
2023/03/28 06:43:02;;;;;;;;;;;;;;;4.19;100.00;100758.03;5036777;28;19928;-40
2023/03/28 06:45:27;;;;;;;;;;;;;;;4.65;100.00;100771.75;5032636;28;19917;-40
2023/03/28 06:47:52;;;;;;;;;;;;;;;4.37;100.00;100745.66;5037129;28;19923;-40
2023/03/28 06:50:18;;;;;;;;;;;;;;;4.78;100.00;100773.72;5034964;28;19960;-40
2023/03/28 06:52:44;;;;;;;;;;;;;;;4.73;100.00;100770.22;5036837;28;19920;-40
2023/03/28 06:55:10;;;;;;;;;;;;;;;4.92;100.00;100755.28;5035876;28;19928;-40
2023/03/28 06:57:35;;;;;;;;;;;;;;;4.89;100.00;100730.56;5037282;28;19920;-40
2023/03/28 07:00:00;;;;;;;;;;;;;;;5.38;100.00;100721.22;5035899;28;19955;-40
2023/03/28 07:02:25;;;;;;;;;;;;;;;4.81;100.00;100689.59;5036270;28;19921;-40
2023/03/28 07:04:51;;;;;;;;;;;;;;;5.42;100.00;100707.66;5034363;28;19979;-39
2023/03/28 07:07:16;;;;;;;;;;;;;;;4.65;100.00;100650.97;5035617;28;19920;-40
2023/03/28 07:09:41;;;;;;;;;;;;;;;4.59;100.00;100672.13;5036195;28;19920;-40
2023/03/28 07:12:06;;;;;;;;;;;;;;;4.45;100.00;100673.53;5036184;28;19917;-40
2023/03/28 07:14:32;;;;;;;;;;;;;;;4.54;100.00;100695.00;5034464;28;19920;-40
2023/03/28 07:16:57;;;;;;;;;;;;;;;5.02;100.00;100708.69;5036103;28;20306;-40
2023/03/28 07:19:22;;;;;;;;;;;;;;;4.60;100.00;100684.91;5036523;28;19917;-40
2023/03/28 07:21:48;;;;;;;;;;;;;;;5.20;100.00;100705.56;5036386;28;20019;-40
2023/03/28 07:24:13;;;;;;;;;;;;;;;5.39;100.00;100707.59;5036489;28;19916;-40
2023/03/28 07:26:38;;;;;;;;;;;;;;;5.19;100.00;100673.22;5035972;28;19941;-40
2023/03/28 07:29:03;;;;;;;;;;;;;;;5.10;100.00;100653.47;5036858;28;19916;-40
2023/03/28 07:31:29;;;;;;;;;;;;;;;5.07;100.00;100640.66;5035775;28;20590;-40
2023/03/28 07:33:56;;;;;;;;;;;;;;;5.20;100.00;100641.72;5036712;28;19916;-40
2023/03/28 07:36:22;;;;;;;;;;;;;;;5.51;100.00;100671.16;5035326;28;19921;-40
2023/03/28 07:38:47;;;;;;;;;;;;;;;5.55;100.00;100661.88;5036500;28;19917;-40
2023/03/28 07:41:13;;;;;;;;;;;;;;;5.20;100.00;100634.03;5035198;28;20983;-40
2023/03/28 07:43:38;;;;;;;;;;;;;;;6.20;100.00;100653.41;5034907;28;20661;-40
2023/03/28 07:46:08;;;;;;;;;;;;;;;5.16;100.00;100606.75;5035354;28;19932;-40
2023/03/28 07:48:34;;;;;;;;;;;;;;;5.30;100.00;100643.59;5036861;28;19913;-40
2023/03/28 07:51:00;;;;;;;;;;;;;;;5.40;100.00;100652.25;5036546;28;19927;-39
2023/03/28 07:53:25;;;;;;;;;;;;;;;6.51;100.00;100694.72;5035931;28;19928;-39
2023/03/28 07:55:50;;;;;;;;;;;;;;;6.36;100.00;100639.09;5035670;28;20074;-39
2023/03/28 07:58:16;;;;;;;;;;;;;;;6.36;100.00;100618.63;5032918;28;20040;-39
2023/03/28 08:00:42;;;;;;;;;;;;;;;5.97;100.00;100571.28;5035638;28;19917;-40
2023/03/28 08:03:07;;;;;;;;;;;;;;;5.40;100.00;100543.25;5035812;28;19921;-40
2023/03/28 08:05:36;;;;;;;;;;;;;;;6.89;100.00;100620.88;5034076;28;19917;-40
2023/03/28 08:08:02;;;;;;;;;;;;;;;5.99;100.00;100510.78;5035742;28;19920;-40
2023/03/28 08:10:27;;;;;;;;;;;;;;;6.17;100.00;100490.50;5035277;28;19984;-40
2023/03/28 08:12:52;;;;;;;;;;;;;;;5.86;100.00;100464.59;5035075;28;20011;-39
2023/03/28 08:15:18;;;;;;;;;;;;;;;6.62;100.00;100486.66;5035613;28;19964;-40
2023/03/28 08:17:43;;;;;;;;;;;;;;;6.54;100.00;100428.56;5039853;28;19920;-40
2023/03/28 08:20:09;;;;;;;;;;;;;;;7.39;100.00;100430.78;5040445;28;19939;-40
2023/03/28 08:22:35;;;;;;;;;;;;;;;6.80;100.00;100357.06;5034132;28;19931;-40
2023/03/28 08:25:00;;;;;;;;;;;;;;;6.39;100.00;100357.69;5036454;28;19924;-40
2023/03/28 08:27:25;;;;;;;;;;;;;;;5.46;100.00;100366.19;5039596;28;19928;-40
2023/03/28 08:29:51;;;;;;;;;;;;;;;6.74;100.00;100451.75;5038910;28;19928;-40
2023/03/28 08:32:16;;;;;;;;;;;;;;;6.01;100.00;100402.56;5036595;28;20003;-40
2023/03/28 08:34:41;;;;;;;;;;;;;;;6.03;100.00;100389.78;5038577;28;19929;-40
2023/03/28 08:37:07;;;;;;;;;;;;;;;5.68;100.00;100389.41;5038835;28;19983;-40
2023/03/28 08:39:33;;;;;;;;;;;;;;;7.31;100.00;100425.59;5039015;28;19921;-40
2023/03/28 08:42:10;;;;;;;;;;;;;;;6.81;100.00;100341.69;5039751;28;20601;-40
2023/03/28 08:44:54;;;;;;;;;;;;;;;7.29;100.00;100370.06;5035899;28;20511;-40
2023/03/28 08:47:27;;;;;;;;;;;;;;;6.57;100.00;100281.00;5039544;28;19916;-40
2023/03/28 08:49:54;;;;;;;;;;;;;;;6.37;100.00;100287.72;5038848;28;19917;-40
2023/03/28 08:52:19;;;;;;;;;;;;;;;7.10;100.00;100317.91;5039206;28;19917;-40
2023/03/28 08:54:46;;;;;;;;;;;;;;;6.67;100.00;100289.56;5038174;28;19999;-40
2023/03/28 08:57:22;;;;;;;;;;;;;;;7.85;100.00;100310.34;5037709;28;19921;-40
2023/03/28 09:00:13;;;;;;;;;;;;;;;6.76;100.00;100230.72;5038988;28;19917;-40
2023/03/28 09:02:39;;;;;;;;;;;;;;;6.33;100.00;100211.78;5033454;28;19936;-40
2023/03/28 09:05:04;;;;;;;;;;;;;;;7.12;100.00;100222.28;5036897;28;19917;-40
2023/03/28 09:07:38;;;;;;;;;;;;;;;7.64;100.00;100203.53;5038088;28;19920;-40
2023/03/28 09:10:12;;;;;;;;;;;;;;;7.75;100.00;100171.03;5039315;28;19940;-40
2023/03/28 09:12:37;;;;;;;;;;;;;;;7.21;100.00;100144.59;5036869;28;19928;-40
2023/03/28 09:15:15;;;;;;;;;;;;;;;6.57;100.00;100124.88;5037981;28;19970;-40
2023/03/28 09:17:52;;;;;;;;;;;;;;;7.03;100.00;100148.00;5036810;28;20432;-40
2023/03/28 09:20:18;;;;;;;;;;;;;;;6.50;100.00;100128.28;5038512;28;19964;-39
2023/03/28 09:22:52;;;;;;;;;;;;;;;6.84;100.00;100146.25;5037106;28;20507;-40
2023/03/28 09:25:28;;;;;;;;;;;;;;;7.11;100.00;100146.28;5037762;28;19920;-40
2023/03/28 09:28:11;;;;;;;;;;;;;;;6.57;100.00;100147.03;5036015;28;19917;-40
2023/03/28 09:30:38;;;;;;;;;;;;;;;6.50;100.00;100161.56;5037227;28;19952;-40
2023/03/28 09:33:05;;;;;;;;;;;;;;;6.83;100.00;100149.69;5034043;28;19917;-41
2023/03/28 09:35:30;;;;;;;;;;;;;;;7.06;100.00;100130.06;5035423;28;19921;-41
2023/03/28 09:38:00;;;;;;;;;;;;;;;7.50;100.00;100089.88;5037888;28;19913;-40
2023/03/28 09:40:26;;;;;;;;;;;;;;;7.71;100.00;100024.91;5035486;28;19924;-40
2023/03/28 09:42:51;;;;;;;;;;;;;;;6.82;100.00;99994.31;5037622;28;19929;-40
2023/03/28 09:45:17;;;;;;;;;;;;;;;7.16;100.00;100007.97;5034675;28;19916;-40
2023/03/28 09:47:42;;;;;;;;;;;;;;;7.44;100.00;99960.06;5036939;28;19955;-41
2023/03/28 09:50:11;;;;;;;;;;;;;;;7.75;100.00;99908.63;5035442;28;20324;-41
2023/03/28 09:52:37;;;;;;;;;;;;;;;7.81;100.00;99869.28;5035945;28;19916;-41
2023/03/28 09:55:02;;;;;;;;;;;;;;;7.20;100.00;99852.53;5035242;28;20443;-40
2023/03/28 09:57:32;;;;;;;;;;;;;;;7.91;100.00;99828.19;5035743;28;20500;-40
2023/03/28 09:59:57;;;;;;;;;;;;;;;8.74;100.00;99803.44;5035514;28;19916;-40
2023/03/28 10:02:24;;;;;;;;;;;;;;;8.41;100.00;99758.47;5034770;28;19966;-40
2023/03/28 10:04:50;;;;;;;;;;;;;;;10.18;100.00;99707.84;5034557;28;20090;-40
2023/03/28 10:07:36;;;;;;;;;;;;;;;11.21;100.00;99685.91;5035803;28;19923;-40
2023/03/28 10:10:07;;;;;;;;;;;;;;;9.41;100.00;99722.03;5028474;28;20300;-41
2023/03/28 10:12:33;;;;;;;;;;;;;;;8.41;100.00;99735.34;5035965;28;19912;-40
2023/03/28 10:14:59;;;;;;;;;;;;;;;8.25;100.00;99750.88;5035013;28;20369;-41
2023/03/28 10:17:28;;;;;;;;;;;;;;;8.73;100.00;99761.50;5037856;28;19924;-41
2023/03/28 10:20:20;;;;;;;;;;;;;;;10.66;100.00;99723.22;5035681;28;19920;-41
2023/03/28 10:22:49;;;;;;;;;;;;;;;11.45;100.00;99678.50;5034405;28;19920;-41
2023/03/28 10:25:16;;;;;;;;;;;;;;;11.14;100.00;99674.06;5036915;28;20020;-41
2023/03/28 10:27:41;;;;;;;;;;;;;;;12.03;100.00;99647.75;5037154;28;20546;-41
2023/03/28 10:30:20;;;;;;;;;;;;;;;11.73;98.97;99640.75;5037168;28;20012;-41
2023/03/28 10:32:46;;;;;;;;;;;;;;;10.80;98.99;99661.94;5034861;28;19920;-41
2023/03/28 10:35:24;;;;;;;;;;;;;;;11.82;98.78;99644.00;5034921;28;19924;-41
2023/03/28 10:37:53;;;;;;;;;;;;;;;11.00;92.48;99629.72;5037573;28;20024;-40
2023/03/28 10:40:19;;;;;;;;;;;;;;;11.55;91.24;99612.88;5034490;28;19966;-41
2023/03/28 10:42:44;;;;;;;;;;;;;;;11.64;93.91;99632.44;5036910;28;19952;-41
2023/03/28 10:45:18;;;;;;;;;;;;;;;9.09;96.35;99700.22;5034037;28;20366;-41
2023/03/28 10:47:43;;;;;;;;;;;;;;;12.21;95.64;99626.59;5035967;28;19916;-41
2023/03/28 10:50:19;;;;;;;;;;;;;;;10.74;89.75;99613.16;5031894;28;19968;-42
2023/03/28 10:52:47;;;;;;;;;;;;;;;13.40;89.51;99590.16;5027323;28;19925;-41
2023/03/28 10:55:16;;;;;;;;;;;;;;;11.00;88.56;99629.72;5031698;28;19921;-40
2023/03/28 10:57:49;;;;;;;;;;;;;;;11.36;82.39;99580.69;5035620;28;19962;-40
2023/03/28 11:00:18;;;;;;;;;;;;;;;9.64;89.52;99668.47;5036143;28;19966;-39
2023/03/28 11:03:02;;;;;;;;;;;;;;;10.00;91.18;99653.25;5034809;28;19916;-39
2023/03/28 11:05:31;;;;;;;;;;;;;;;10.31;91.77;99644.97;5035976;28;19928;-40
2023/03/28 11:08:08;;;;;;;;;;;;;;;11.33;90.48;99628.03;5034938;28;19951;-40
2023/03/28 11:10:45;;;;;;;;;;;;;;;11.68;88.33;99609.09;5036584;28;19920;-40
2023/03/28 11:13:13;;;;;;;;;;;;;;;12.14;90.70;99623.31;5035668;28;19916;-40
2023/03/28 11:15:47;;;;;;;;;;;;;;;11.74;87.14;99597.75;5017250;28;19931;-40
2023/03/28 11:18:15;;;;;;;;;;;;;;;12.63;87.20;99589.19;5036606;28;19933;-40
2023/03/28 11:20:46;;;;;;;;;;;;;;;11.71;81.90;99566.88;5036640;28;20445;-40
2023/03/28 11:23:14;;;;;;;;;;;;;;;9.77;84.53;99620.25;5036214;28;19925;-40
2023/03/28 11:25:58;;;;;;;;;;;;;;;10.97;88.20;99630.66;5034999;28;20436;-40
2023/03/28 11:28:36;;;;;;;;;;;;;;;11.01;87.47;99623.66;5037104;28;19919;-40
2023/03/28 11:31:02;;;;;;;;;;;;;;;12.50;89.67;99607.66;5037478;28;19917;-40
2023/03/28 11:33:30;;;;;;;;;;;;;;;11.86;84.75;99578.47;5034782;28;19951;-40
2023/03/28 11:35:59;;;;;;;;;;;;;;;10.80;93.83;99659.34;5035964;28;19977;-40
2023/03/28 11:38:38;;;;;;;;;;;;;;;11.65;91.73;99622.03;5035987;28;20382;-40
2023/03/28 11:41:03;;;;;;;;;;;;;;;12.55;88.15;99572.19;5035074;28;19917;-40
2023/03/28 11:43:31;;;;;;;;;;;;;;;13.25;88.13;99572.53;5034870;28;19921;-40
2023/03/28 11:45:58;;;;;;;;;;;;;;;12.93;87.30;99572.72;5034920;28;19962;-40
2023/03/28 11:48:33;;;;;;;;;;;;;;;12.79;86.32;99568.88;5036810;28;19999;-40
2023/03/28 11:51:03;;;;;;;;;;;;;;;13.39;85.91;99554.84;5038171;28;19924;-40
2023/03/28 11:53:41;;;;;;;;;;;;;;;13.16;84.91;99553.00;5039563;28;20054;-40
2023/03/28 11:56:22;;;;;;;;;;;;;;;11.02;90.81;99622.81;5039124;28;20031;-40
2023/03/28 11:58:47;;;;;;;;;;;;;;;12.94;89.18;99570.97;5040130;28;20552;-40
2023/03/28 12:01:14;;;;;;;;;;;;;;;13.46;88.19;99560.66;5038570;28;19916;-40
2023/03/28 12:03:58;;;;;;;;;;;;;;;12.60;82.74;99532.44;5040131;28;19921;-40
2023/03/28 12:06:42;;;;;;;;;;;;;;;14.31;83.53;99516.94;5037478;28;19960;-40
2023/03/28 12:09:17;;;;;;;;;;;;;;;13.09;82.40;99531.69;5039648;28;19943;-40
2023/03/28 12:11:50;;;;;;;;;;;;;;;14.36;82.31;99507.25;5038322;28;19920;-40
2023/03/28 12:14:31;;;;;;;;;;;;;;;14.41;82.94;99515.66;5037968;28;19924;-40
2023/03/28 12:16:57;;;;;;;;;;;;;;;13.22;84.94;99539.84;5039459;28;19924;-40
2023/03/28 12:19:33;;;;;;;;;;;;;;;14.32;82.61;99495.31;5038160;28;19924;-40
2023/03/28 12:22:00;;;;;;;;;;;;;;;13.57;82.25;99499.84;5038960;28;19923;-40
2023/03/28 12:24:44;;;;;;;;;;;;;;;14.96;83.55;99484.97;5039126;28;19917;-40
2023/03/28 12:27:09;;;;;;;;;;;;;;;14.52;83.39;99500.53;5039283;28;19975;-40
2023/03/28 12:29:48;;;;;;;;;;;;;;;14.15;79.16;99463.16;5038995;28;19921;-40
2023/03/28 12:32:16;;;;;;;;;;;;;;;14.53;80.32;99462.50;5052463;28;19917;-40
2023/03/28 12:34:43;;;;;;;;;;;;;;;14.34;80.03;99470.19;5037707;28;19920;-40
2023/03/28 12:37:21;;;;;;;;;;;;;;;15.38;79.40;99439.88;5035748;28;19929;-40
2023/03/28 12:39:54;;;;;;;;;;;;;;;15.06;80.00;99452.50;5037038;28;19936;-40
2023/03/28 12:42:19;;;;;;;;;;;;;;;14.42;75.86;99426.69;5036482;28;19920;-40
2023/03/28 12:45:14;;;;;;;;;;;;;;;11.52;73.58;99446.13;5034590;28;20687;-40